sensor_id;sensor_type;location;lat;lon;timestamp;P1;durP1;ratioP1;P2;durP2;ratioP2
82292;SDS011;71892;14.836;105.234;2024-03-23T00:52:39;35.88;;;21.65;;
82292;SDS011;71892;14.836;105.234;2024-03-23T00:55:06;32.75;;;21.35;;
82292;SDS011;71892;14.836;105.234;2024-03-23T00:57:33;37.15;;;20.48;;
82292;SDS011;71892;14.836;105.234;2024-03-23T00:59:59;42.55;;;21.15;;
82292;SDS011;71892;14.836;105.234;2024-03-23T01:02:26;36.10;;;20.48;;
82292;SDS011;71892;14.836;105.234;2024-03-23T01:04:52;36.30;;;19.80;;
82292;SDS011;71892;14.836;105.234;2024-03-23T01:07:19;38.25;;;20.55;;
82292;SDS011;71892;14.836;105.234;2024-03-23T01:09:45;32.13;;;18.95;;
82292;SDS011;71892;14.836;105.234;2024-03-23T01:12:12;32.33;;;17.75;;
82292;SDS011;71892;14.836;105.234;2024-03-23T01:14:38;29.33;;;16.60;;
82292;SDS011;71892;14.836;105.234;2024-03-23T01:17:05;32.42;;;18.42;;
82292;SDS011;71892;14.836;105.234;2024-03-23T01:19:31;33.97;;;18.65;;
82292;SDS011;71892;14.836;105.234;2024-03-23T01:21:57;26.52;;;18.83;;
82292;SDS011;71892;14.836;105.234;2024-03-23T01:24:24;25.63;;;16.08;;
82292;SDS011;71892;14.836;105.234;2024-03-23T01:26:50;33.88;;;17.20;;
82292;SDS011;71892;14.836;105.234;2024-03-23T01:29:17;24.65;;;16.15;;
82292;SDS011;71892;14.836;105.234;2024-03-23T01:31:43;35.05;;;18.10;;
82292;SDS011;71892;14.836;105.234;2024-03-23T01:34:11;32.72;;;17.25;;
82292;SDS011;71892;14.836;105.234;2024-03-23T01:36:37;27.88;;;16.45;;
82292;SDS011;71892;14.836;105.234;2024-03-23T01:39:04;25.33;;;15.27;;
82292;SDS011;71892;14.836;105.234;2024-03-23T01:41:30;30.80;;;17.13;;
82292;SDS011;71892;14.836;105.234;2024-03-23T01:43:57;28.35;;;15.57;;
82292;SDS011;71892;14.836;105.234;2024-03-23T01:46:23;22.42;;;14.50;;
82292;SDS011;71892;14.836;105.234;2024-03-23T01:48:50;22.60;;;15.82;;
82292;SDS011;71892;14.836;105.234;2024-03-23T01:51:17;30.10;;;14.52;;
82292;SDS011;71892;14.836;105.234;2024-03-23T01:53:43;28.48;;;15.32;;
82292;SDS011;71892;14.836;105.234;2024-03-23T01:56:10;30.42;;;16.15;;
82292;SDS011;71892;14.836;105.234;2024-03-23T01:58:39;22.45;;;15.70;;
82292;SDS011;71892;14.836;105.234;2024-03-23T02:01:06;33.80;;;16.17;;
82292;SDS011;71892;14.836;105.234;2024-03-23T02:03:32;21.48;;;14.80;;
82292;SDS011;71892;14.836;105.234;2024-03-23T02:05:58;31.33;;;15.20;;
82292;SDS011;71892;14.836;105.234;2024-03-23T02:08:25;26.35;;;14.23;;
82292;SDS011;71892;14.836;105.234;2024-03-23T02:10:52;22.48;;;15.02;;
82292;SDS011;71892;14.836;105.234;2024-03-23T02:13:18;22.75;;;15.15;;
82292;SDS011;71892;14.836;105.234;2024-03-23T02:15:45;30.35;;;15.80;;
82292;SDS011;71892;14.836;105.234;2024-03-23T02:18:11;21.10;;;14.88;;
82292;SDS011;71892;14.836;105.234;2024-03-23T02:20:38;24.80;;;13.90;;
82292;SDS011;71892;14.836;105.234;2024-03-23T02:23:05;22.75;;;14.15;;
82292;SDS011;71892;14.836;105.234;2024-03-23T02:25:32;21.55;;;13.85;;
82292;SDS011;71892;14.836;105.234;2024-03-23T02:27:59;23.92;;;14.88;;
82292;SDS011;71892;14.836;105.234;2024-03-23T02:30:25;21.00;;;14.40;;
82292;SDS011;71892;14.836;105.234;2024-03-23T02:32:52;20.95;;;13.85;;
82292;SDS011;71892;14.836;105.234;2024-03-23T02:35:19;22.67;;;13.75;;
82292;SDS011;71892;14.836;105.234;2024-03-23T02:37:46;21.23;;;14.23;;
82292;SDS011;71892;14.836;105.234;2024-03-23T02:40:16;27.30;;;13.90;;
82292;SDS011;71892;14.836;105.234;2024-03-23T02:42:43;26.27;;;14.82;;
82292;SDS011;71892;14.836;105.234;2024-03-23T02:45:09;27.95;;;15.60;;
82292;SDS011;71892;14.836;105.234;2024-03-23T02:47:36;23.95;;;14.73;;
82292;SDS011;71892;14.836;105.234;2024-03-23T02:50:02;27.02;;;13.32;;
82292;SDS011;71892;14.836;105.234;2024-03-23T02:52:29;23.48;;;14.32;;
82292;SDS011;71892;14.836;105.234;2024-03-23T02:54:59;29.85;;;14.75;;
82292;SDS011;71892;14.836;105.234;2024-03-23T02:57:27;22.23;;;13.52;;
82292;SDS011;71892;14.836;105.234;2024-03-23T02:59:54;22.33;;;15.00;;
82292;SDS011;71892;14.836;105.234;2024-03-23T03:02:20;21.83;;;14.07;;
82292;SDS011;71892;14.836;105.234;2024-03-23T03:04:47;25.58;;;14.95;;
82292;SDS011;71892;14.836;105.234;2024-03-23T03:07:13;25.23;;;14.90;;
82292;SDS011;71892;14.836;105.234;2024-03-23T03:09:40;25.85;;;14.80;;
82292;SDS011;71892;14.836;105.234;2024-03-23T03:12:07;24.52;;;15.43;;
82292;SDS011;71892;14.836;105.234;2024-03-23T03:14:34;22.58;;;16.02;;
82292;SDS011;71892;14.836;105.234;2024-03-23T03:17:00;24.85;;;15.80;;
82292;SDS011;71892;14.836;105.234;2024-03-23T03:19:26;24.27;;;14.57;;
82292;SDS011;71892;14.836;105.234;2024-03-23T03:21:53;25.05;;;14.63;;
82292;SDS011;71892;14.836;105.234;2024-03-23T03:24:19;21.70;;;16.02;;
82292;SDS011;71892;14.836;105.234;2024-03-23T03:26:46;26.70;;;15.00;;
82292;SDS011;71892;14.836;105.234;2024-03-23T03:29:12;20.65;;;14.00;;
82292;SDS011;71892;14.836;105.234;2024-03-23T03:31:39;24.15;;;14.70;;
82292;SDS011;71892;14.836;105.234;2024-03-23T03:34:05;19.23;;;14.35;;
82292;SDS011;71892;14.836;105.234;2024-03-23T03:36:34;22.02;;;15.38;;
82292;SDS011;71892;14.836;105.234;2024-03-23T03:39:01;27.42;;;15.25;;
82292;SDS011;71892;14.836;105.234;2024-03-23T03:41:31;22.50;;;14.75;;
82292;SDS011;71892;14.836;105.234;2024-03-23T03:43:57;24.00;;;15.77;;
82292;SDS011;71892;14.836;105.234;2024-03-23T03:46:28;22.05;;;16.38;;
82292;SDS011;71892;14.836;105.234;2024-03-23T03:48:54;28.92;;;15.15;;
82292;SDS011;71892;14.836;105.234;2024-03-23T03:51:20;25.00;;;15.55;;
82292;SDS011;71892;14.836;105.234;2024-03-23T03:53:47;22.13;;;15.00;;
82292;SDS011;71892;14.836;105.234;2024-03-23T03:56:13;25.35;;;14.10;;
82292;SDS011;71892;14.836;105.234;2024-03-23T03:58:40;23.63;;;14.43;;
82292;SDS011;71892;14.836;105.234;2024-03-23T04:01:06;24.85;;;14.48;;
82292;SDS011;71892;14.836;105.234;2024-03-23T04:03:33;26.30;;;15.50;;
82292;SDS011;71892;14.836;105.234;2024-03-23T04:06:00;31.77;;;15.52;;
82292;SDS011;71892;14.836;105.234;2024-03-23T04:08:26;22.85;;;15.43;;
82292;SDS011;71892;14.836;105.234;2024-03-23T04:10:53;25.13;;;16.02;;
82292;SDS011;71892;14.836;105.234;2024-03-23T04:13:19;28.42;;;16.73;;
82292;SDS011;71892;14.836;105.234;2024-03-23T04:15:46;30.67;;;15.45;;
82292;SDS011;71892;14.836;105.234;2024-03-23T04:18:12;22.92;;;16.00;;
82292;SDS011;71892;14.836;105.234;2024-03-23T04:20:39;23.83;;;15.15;;
82292;SDS011;71892;14.836;105.234;2024-03-23T04:23:06;21.98;;;15.65;;
82292;SDS011;71892;14.836;105.234;2024-03-23T04:25:32;25.40;;;15.02;;
82292;SDS011;71892;14.836;105.234;2024-03-23T04:27:59;22.15;;;15.57;;
82292;SDS011;71892;14.836;105.234;2024-03-23T04:30:25;30.85;;;15.20;;
82292;SDS011;71892;14.836;105.234;2024-03-23T04:32:53;24.20;;;15.82;;
82292;SDS011;71892;14.836;105.234;2024-03-23T04:35:20;23.42;;;16.73;;
82292;SDS011;71892;14.836;105.234;2024-03-23T04:37:47;38.03;;;16.77;;
82292;SDS011;71892;14.836;105.234;2024-03-23T04:40:14;23.65;;;15.77;;
82292;SDS011;71892;14.836;105.234;2024-03-23T04:42:40;25.65;;;16.55;;
82292;SDS011;71892;14.836;105.234;2024-03-23T04:45:07;30.17;;;17.10;;
82292;SDS011;71892;14.836;105.234;2024-03-23T04:47:34;36.70;;;16.48;;
82292;SDS011;71892;14.836;105.234;2024-03-23T04:50:03;30.20;;;16.55;;
82292;SDS011;71892;14.836;105.234;2024-03-23T04:52:30;26.67;;;18.15;;
82292;SDS011;71892;14.836;105.234;2024-03-23T04:54:57;26.65;;;16.50;;
82292;SDS011;71892;14.836;105.234;2024-03-23T04:57:24;24.38;;;15.73;;
82292;SDS011;71892;14.836;105.234;2024-03-23T04:59:50;28.23;;;16.70;;
82292;SDS011;71892;14.836;105.234;2024-03-23T05:02:17;26.70;;;15.93;;
82292;SDS011;71892;14.836;105.234;2024-03-23T05:04:43;24.60;;;15.85;;
82292;SDS011;71892;14.836;105.234;2024-03-23T05:07:10;19.67;;;15.43;;
82292;SDS011;71892;14.836;105.234;2024-03-23T05:09:36;27.33;;;18.00;;
82292;SDS011;71892;14.836;105.234;2024-03-23T05:12:06;27.63;;;16.20;;
82292;SDS011;71892;14.836;105.234;2024-03-23T05:14:32;28.35;;;17.05;;
82292;SDS011;71892;14.836;105.234;2024-03-23T05:16:59;25.65;;;15.55;;
82292;SDS011;71892;14.836;105.234;2024-03-23T05:19:25;24.90;;;16.27;;
82292;SDS011;71892;14.836;105.234;2024-03-23T05:21:53;26.52;;;16.75;;
82292;SDS011;71892;14.836;105.234;2024-03-23T05:24:19;30.10;;;15.95;;
82292;SDS011;71892;14.836;105.234;2024-03-23T05:26:46;25.70;;;16.05;;
82292;SDS011;71892;14.836;105.234;2024-03-23T05:29:12;23.13;;;15.90;;
82292;SDS011;71892;14.836;105.234;2024-03-23T05:31:39;23.30;;;16.08;;
82292;SDS011;71892;14.836;105.234;2024-03-23T05:34:07;21.40;;;16.00;;
82292;SDS011;71892;14.836;105.234;2024-03-23T05:36:34;30.48;;;16.45;;
82292;SDS011;71892;14.836;105.234;2024-03-23T05:39:01;27.73;;;16.90;;
82292;SDS011;71892;14.836;105.234;2024-03-23T05:41:28;21.27;;;16.23;;
82292;SDS011;71892;14.836;105.234;2024-03-23T05:43:55;22.60;;;16.20;;
82292;SDS011;71892;14.836;105.234;2024-03-23T05:46:21;24.67;;;16.17;;
82292;SDS011;71892;14.836;105.234;2024-03-23T05:48:47;24.55;;;16.10;;
82292;SDS011;71892;14.836;105.234;2024-03-23T05:51:14;25.08;;;17.08;;
82292;SDS011;71892;14.836;105.234;2024-03-23T05:53:42;28.38;;;15.65;;
82292;SDS011;71892;14.836;105.234;2024-03-23T05:56:08;27.50;;;15.52;;
82292;SDS011;71892;14.836;105.234;2024-03-23T05:58:34;28.50;;;18.30;;
82292;SDS011;71892;14.836;105.234;2024-03-23T06:01:01;24.50;;;15.68;;
82292;SDS011;71892;14.836;105.234;2024-03-23T06:03:28;30.42;;;15.75;;
82292;SDS011;71892;14.836;105.234;2024-03-23T06:05:58;26.90;;;17.92;;
82292;SDS011;71892;14.836;105.234;2024-03-23T06:08:24;22.42;;;16.77;;
82292;SDS011;71892;14.836;105.234;2024-03-23T06:10:51;20.08;;;16.20;;
82292;SDS011;71892;14.836;105.234;2024-03-23T06:13:17;24.55;;;17.13;;
82292;SDS011;71892;14.836;105.234;2024-03-23T06:15:45;31.90;;;17.42;;
82292;SDS011;71892;14.836;105.234;2024-03-23T06:18:12;28.17;;;16.70;;
82292;SDS011;71892;14.836;105.234;2024-03-23T06:20:38;28.00;;;17.00;;
82292;SDS011;71892;14.836;105.234;2024-03-23T06:23:05;22.65;;;16.67;;
82292;SDS011;71892;14.836;105.234;2024-03-23T06:25:31;23.05;;;16.88;;
82292;SDS011;71892;14.836;105.234;2024-03-23T06:27:58;21.55;;;16.58;;
82292;SDS011;71892;14.836;105.234;2024-03-23T06:30:25;24.52;;;16.38;;
82292;SDS011;71892;14.836;105.234;2024-03-23T06:32:52;23.65;;;17.30;;
82292;SDS011;71892;14.836;105.234;2024-03-23T06:35:18;29.33;;;17.85;;
82292;SDS011;71892;14.836;105.234;2024-03-23T06:37:45;24.50;;;16.48;;
82292;SDS011;71892;14.836;105.234;2024-03-23T06:40:11;25.13;;;17.45;;
82292;SDS011;71892;14.836;105.234;2024-03-23T06:42:38;25.73;;;17.25;;
82292;SDS011;71892;14.836;105.234;2024-03-23T06:45:05;24.25;;;18.70;;
82292;SDS011;71892;14.836;105.234;2024-03-23T06:47:32;27.23;;;18.35;;
82292;SDS011;71892;14.836;105.234;2024-03-23T06:50:02;23.60;;;17.88;;
82292;SDS011;71892;14.836;105.234;2024-03-23T06:52:29;26.33;;;18.63;;
82292;SDS011;71892;14.836;105.234;2024-03-23T06:54:57;23.00;;;17.75;;
82292;SDS011;71892;14.836;105.234;2024-03-23T06:57:24;26.88;;;19.08;;
82292;SDS011;71892;14.836;105.234;2024-03-23T06:59:50;25.65;;;18.73;;
82292;SDS011;71892;14.836;105.234;2024-03-23T07:02:16;26.70;;;19.55;;
82292;SDS011;71892;14.836;105.234;2024-03-23T07:04:43;27.13;;;18.42;;
82292;SDS011;71892;14.836;105.234;2024-03-23T07:07:09;31.75;;;19.65;;
82292;SDS011;71892;14.836;105.234;2024-03-23T07:09:37;24.60;;;17.30;;
82292;SDS011;71892;14.836;105.234;2024-03-23T07:12:03;27.30;;;18.27;;
82292;SDS011;71892;14.836;105.234;2024-03-23T07:14:30;26.63;;;18.35;;
82292;SDS011;71892;14.836;105.234;2024-03-23T07:16:56;22.88;;;19.38;;
82292;SDS011;71892;14.836;105.234;2024-03-23T07:19:23;27.75;;;18.55;;
82292;SDS011;71892;14.836;105.234;2024-03-23T07:21:50;28.45;;;18.05;;
82292;SDS011;71892;14.836;105.234;2024-03-23T07:24:16;32.00;;;20.55;;
82292;SDS011;71892;14.836;105.234;2024-03-23T07:26:42;29.40;;;17.90;;
82292;SDS011;71892;14.836;105.234;2024-03-23T07:29:09;30.08;;;18.88;;
82292;SDS011;71892;14.836;105.234;2024-03-23T07:31:35;31.70;;;19.83;;
82292;SDS011;71892;14.836;105.234;2024-03-23T07:34:02;24.88;;;17.05;;
82292;SDS011;71892;14.836;105.234;2024-03-23T07:36:28;26.42;;;17.23;;
82292;SDS011;71892;14.836;105.234;2024-03-23T07:38:55;30.30;;;19.60;;
82292;SDS011;71892;14.836;105.234;2024-03-23T07:41:21;23.52;;;18.58;;
82292;SDS011;71892;14.836;105.234;2024-03-23T07:43:48;29.55;;;20.13;;
82292;SDS011;71892;14.836;105.234;2024-03-23T07:46:16;26.98;;;18.92;;
82292;SDS011;71892;14.836;105.234;2024-03-23T07:48:42;24.02;;;17.42;;
82292;SDS011;71892;14.836;105.234;2024-03-23T07:51:16;23.35;;;17.67;;
82292;SDS011;71892;14.836;105.234;2024-03-23T07:53:43;23.88;;;18.10;;
82292;SDS011;71892;14.836;105.234;2024-03-23T07:56:11;30.55;;;19.20;;
82292;SDS011;71892;14.836;105.234;2024-03-23T07:58:40;29.02;;;20.10;;
82292;SDS011;71892;14.836;105.234;2024-03-23T08:01:14;29.55;;;19.80;;
82292;SDS011;71892;14.836;105.234;2024-03-23T08:03:42;25.85;;;17.92;;
82292;SDS011;71892;14.836;105.234;2024-03-23T08:06:11;28.23;;;19.08;;
82292;SDS011;71892;14.836;105.234;2024-03-23T08:08:41;29.35;;;18.52;;
82292;SDS011;71892;14.836;105.234;2024-03-23T08:11:08;30.48;;;19.58;;
82292;SDS011;71892;14.836;105.234;2024-03-23T08:13:36;28.27;;;19.48;;
82292;SDS011;71892;14.836;105.234;2024-03-23T08:16:07;29.15;;;17.77;;
82292;SDS011;71892;14.836;105.234;2024-03-23T08:18:39;28.20;;;18.40;;
82292;SDS011;71892;14.836;105.234;2024-03-23T08:21:05;31.00;;;18.90;;
82292;SDS011;71892;14.836;105.234;2024-03-23T08:23:33;23.92;;;19.58;;
82292;SDS011;71892;14.836;105.234;2024-03-23T08:26:10;26.27;;;18.63;;
82292;SDS011;71892;14.836;105.234;2024-03-23T08:28:38;31.58;;;19.13;;
82292;SDS011;71892;14.836;105.234;2024-03-23T08:31:07;29.10;;;20.05;;
82292;SDS011;71892;14.836;105.234;2024-03-23T08:33:34;35.28;;;19.33;;
82292;SDS011;71892;14.836;105.234;2024-03-23T08:36:07;33.75;;;18.80;;
82292;SDS011;71892;14.836;105.234;2024-03-23T08:38:37;27.48;;;18.90;;
82292;SDS011;71892;14.836;105.234;2024-03-23T08:41:10;25.08;;;18.70;;
82292;SDS011;71892;14.836;105.234;2024-03-23T08:43:40;25.13;;;18.00;;
82292;SDS011;71892;14.836;105.234;2024-03-23T08:46:11;27.67;;;18.80;;
82292;SDS011;71892;14.836;105.234;2024-03-23T08:48:42;23.27;;;18.90;;
82292;SDS011;71892;14.836;105.234;2024-03-23T08:51:14;28.33;;;19.92;;
82292;SDS011;71892;14.836;105.234;2024-03-23T08:53:41;32.22;;;20.38;;
82292;SDS011;71892;14.836;105.234;2024-03-23T08:56:08;39.22;;;25.58;;
82292;SDS011;71892;14.836;105.234;2024-03-23T08:58:36;23.98;;;18.33;;
82292;SDS011;71892;14.836;105.234;2024-03-23T09:01:07;26.05;;;20.15;;
82292;SDS011;71892;14.836;105.234;2024-03-23T09:03:35;30.63;;;18.40;;
82292;SDS011;71892;14.836;105.234;2024-03-23T09:06:08;25.80;;;17.88;;
82292;SDS011;71892;14.836;105.234;2024-03-23T09:08:36;25.90;;;19.40;;
82292;SDS011;71892;14.836;105.234;2024-03-23T09:11:06;27.05;;;18.55;;
82292;SDS011;71892;14.836;105.234;2024-03-23T09:13:34;30.38;;;18.02;;
82292;SDS011;71892;14.836;105.234;2024-03-23T09:16:01;23.88;;;19.30;;
82292;SDS011;71892;14.836;105.234;2024-03-23T09:18:30;26.63;;;19.42;;
82292;SDS011;71892;14.836;105.234;2024-03-23T09:20:58;27.92;;;18.55;;
82292;SDS011;71892;14.836;105.234;2024-03-23T09:23:24;29.08;;;20.45;;
82292;SDS011;71892;14.836;105.234;2024-03-23T09:25:51;28.45;;;18.83;;
82292;SDS011;71892;14.836;105.234;2024-03-23T09:28:17;25.85;;;19.02;;
82292;SDS011;71892;14.836;105.234;2024-03-23T09:30:43;31.08;;;20.83;;
82292;SDS011;71892;14.836;105.234;2024-03-23T09:33:10;26.38;;;18.52;;
82292;SDS011;71892;14.836;105.234;2024-03-23T09:35:41;29.20;;;18.13;;
82292;SDS011;71892;14.836;105.234;2024-03-23T09:38:10;26.33;;;18.88;;
82292;SDS011;71892;14.836;105.234;2024-03-23T09:40:42;25.65;;;18.63;;
82292;SDS011;71892;14.836;105.234;2024-03-23T09:43:09;31.15;;;20.35;;
82292;SDS011;71892;14.836;105.234;2024-03-23T09:45:39;26.58;;;19.20;;
82292;SDS011;71892;14.836;105.234;2024-03-23T09:48:09;27.48;;;19.13;;
82292;SDS011;71892;14.836;105.234;2024-03-23T09:50:39;33.17;;;19.55;;
82292;SDS011;71892;14.836;105.234;2024-03-23T09:53:07;30.60;;;18.70;;
82292;SDS011;71892;14.836;105.234;2024-03-23T09:55:35;24.38;;;19.50;;
82292;SDS011;71892;14.836;105.234;2024-03-23T09:58:02;28.05;;;18.70;;
82292;SDS011;71892;14.836;105.234;2024-03-23T10:00:30;23.73;;;18.30;;
82292;SDS011;71892;14.836;105.234;2024-03-23T10:02:58;37.25;;;20.17;;
82292;SDS011;71892;14.836;105.234;2024-03-23T10:05:27;26.33;;;18.83;;
82292;SDS011;71892;14.836;105.234;2024-03-23T10:07:56;28.98;;;20.42;;
82292;SDS011;71892;14.836;105.234;2024-03-23T10:10:24;29.35;;;20.25;;
82292;SDS011;71892;14.836;105.234;2024-03-23T10:12:51;26.27;;;18.25;;
82292;SDS011;71892;14.836;105.234;2024-03-23T10:15:24;29.15;;;19.83;;
82292;SDS011;71892;14.836;105.234;2024-03-23T10:17:51;26.52;;;19.55;;
82292;SDS011;71892;14.836;105.234;2024-03-23T10:20:21;26.05;;;19.60;;
82292;SDS011;71892;14.836;105.234;2024-03-23T10:22:49;27.88;;;19.45;;
82292;SDS011;71892;14.836;105.234;2024-03-23T10:25:22;24.15;;;18.30;;
82292;SDS011;71892;14.836;105.234;2024-03-23T10:28:00;26.17;;;18.60;;
82292;SDS011;71892;14.836;105.234;2024-03-23T10:30:27;25.83;;;18.83;;
82292;SDS011;71892;14.836;105.234;2024-03-23T10:33:06;26.60;;;19.08;;
82292;SDS011;71892;14.836;105.234;2024-03-23T10:35:36;25.75;;;17.63;;
82292;SDS011;71892;14.836;105.234;2024-03-23T10:38:07;34.95;;;19.45;;
82292;SDS011;71892;14.836;105.234;2024-03-23T10:40:34;29.83;;;18.90;;
82292;SDS011;71892;14.836;105.234;2024-03-23T10:43:02;24.50;;;18.27;;
82292;SDS011;71892;14.836;105.234;2024-03-23T10:45:30;31.08;;;19.77;;
82292;SDS011;71892;14.836;105.234;2024-03-23T10:47:56;24.00;;;19.45;;
82292;SDS011;71892;14.836;105.234;2024-03-23T10:50:23;35.30;;;21.42;;
82292;SDS011;71892;14.836;105.234;2024-03-23T10:52:53;34.55;;;20.92;;
82292;SDS011;71892;14.836;105.234;2024-03-23T10:55:21;32.63;;;20.77;;
82292;SDS011;71892;14.836;105.234;2024-03-23T10:57:50;30.42;;;20.08;;
82292;SDS011;71892;14.836;105.234;2024-03-23T11:00:24;32.72;;;21.33;;
82292;SDS011;71892;14.836;105.234;2024-03-23T11:02:51;30.00;;;21.27;;
82292;SDS011;71892;14.836;105.234;2024-03-23T11:05:28;30.70;;;21.23;;
82292;SDS011;71892;14.836;105.234;2024-03-23T11:07:55;33.17;;;22.30;;
82292;SDS011;71892;14.836;105.234;2024-03-23T11:10:29;34.05;;;23.10;;
82292;SDS011;71892;14.836;105.234;2024-03-23T11:12:56;39.00;;;23.60;;
82292;SDS011;71892;14.836;105.234;2024-03-23T11:15:23;37.10;;;23.77;;
82292;SDS011;71892;14.836;105.234;2024-03-23T11:18:03;32.13;;;24.90;;
82292;SDS011;71892;14.836;105.234;2024-03-23T11:20:33;36.00;;;23.35;;
82292;SDS011;71892;14.836;105.234;2024-03-23T11:23:00;32.03;;;24.20;;
82292;SDS011;71892;14.836;105.234;2024-03-23T11:25:27;33.05;;;23.23;;
82292;SDS011;71892;14.836;105.234;2024-03-23T11:27:57;35.47;;;24.88;;
82292;SDS011;71892;14.836;105.234;2024-03-23T11:30:34;37.47;;;24.05;;
82292;SDS011;71892;14.836;105.234;2024-03-23T11:35:30;35.90;;;25.00;;
82292;SDS011;71892;14.836;105.234;2024-03-23T11:38:07;42.03;;;26.73;;
82292;SDS011;71892;14.836;105.234;2024-03-23T11:40:47;44.70;;;28.42;;
82292;SDS011;71892;14.836;105.234;2024-03-23T11:45:43;43.20;;;30.55;;
82292;SDS011;71892;14.836;105.234;2024-03-23T11:48:13;48.90;;;30.52;;
82292;SDS011;71892;14.836;105.234;2024-03-23T11:50:45;41.78;;;28.55;;
82292;SDS011;71892;14.836;105.234;2024-03-23T11:53:19;41.83;;;28.30;;
82292;SDS011;71892;14.836;105.234;2024-03-23T11:55:48;42.40;;;28.63;;
82292;SDS011;71892;14.836;105.234;2024-03-23T11:58:16;42.05;;;27.70;;
82292;SDS011;71892;14.836;105.234;2024-03-23T12:00:56;33.53;;;26.25;;
82292;SDS011;71892;14.836;105.234;2024-03-23T12:03:29;42.00;;;27.05;;
82292;SDS011;71892;14.836;105.234;2024-03-23T12:05:58;40.53;;;26.80;;
82292;SDS011;71892;14.836;105.234;2024-03-23T12:11:10;40.53;;;28.10;;
82292;SDS011;71892;14.836;105.234;2024-03-23T12:13:42;36.72;;;25.92;;
82292;SDS011;71892;14.836;105.234;2024-03-23T12:16:19;45.35;;;27.83;;
82292;SDS011;71892;14.836;105.234;2024-03-23T12:18:47;44.72;;;27.90;;
82292;SDS011;71892;14.836;105.234;2024-03-23T12:21:16;45.90;;;28.52;;
82292;SDS011;71892;14.836;105.234;2024-03-23T12:23:43;48.25;;;30.48;;
82292;SDS011;71892;14.836;105.234;2024-03-23T12:26:12;37.88;;;27.63;;
82292;SDS011;71892;14.836;105.234;2024-03-23T12:28:38;40.35;;;25.75;;
82292;SDS011;71892;14.836;105.234;2024-03-23T12:31:05;41.38;;;27.42;;
82292;SDS011;71892;14.836;105.234;2024-03-23T12:33:31;40.08;;;30.15;;
82292;SDS011;71892;14.836;105.234;2024-03-23T12:35:58;48.95;;;29.85;;
82292;SDS011;71892;14.836;105.234;2024-03-23T12:38:24;41.83;;;29.15;;
82292;SDS011;71892;14.836;105.234;2024-03-23T12:40:51;43.40;;;30.45;;
82292;SDS011;71892;14.836;105.234;2024-03-23T12:43:20;41.28;;;29.08;;
82292;SDS011;71892;14.836;105.234;2024-03-23T12:45:47;37.17;;;28.05;;
82292;SDS011;71892;14.836;105.234;2024-03-23T12:48:14;39.67;;;27.75;;
82292;SDS011;71892;14.836;105.234;2024-03-23T12:50:40;42.72;;;28.48;;
82292;SDS011;71892;14.836;105.234;2024-03-23T12:53:07;41.55;;;28.30;;
82292;SDS011;71892;14.836;105.234;2024-03-23T12:55:37;40.47;;;27.85;;
82292;SDS011;71892;14.836;105.234;2024-03-23T12:58:03;37.75;;;27.67;;
82292;SDS011;71892;14.836;105.234;2024-03-23T13:00:30;36.05;;;28.65;;
82292;SDS011;71892;14.836;105.234;2024-03-23T13:02:56;42.50;;;27.58;;
82292;SDS011;71892;14.836;105.234;2024-03-23T13:05:23;41.17;;;29.17;;
82292;SDS011;71892;14.836;105.234;2024-03-23T13:07:49;39.97;;;29.60;;
82292;SDS011;71892;14.836;105.234;2024-03-23T13:10:15;45.50;;;28.52;;
82292;SDS011;71892;14.836;105.234;2024-03-23T13:12:42;38.17;;;28.63;;
82292;SDS011;71892;14.836;105.234;2024-03-23T13:15:09;46.83;;;30.73;;
82292;SDS011;71892;14.836;105.234;2024-03-23T13:17:35;49.25;;;30.70;;
82292;SDS011;71892;14.836;105.234;2024-03-23T13:20:02;47.03;;;30.63;;
82292;SDS011;71892;14.836;105.234;2024-03-23T13:22:29;44.22;;;30.00;;
82292;SDS011;71892;14.836;105.234;2024-03-23T13:24:56;41.42;;;29.70;;
82292;SDS011;71892;14.836;105.234;2024-03-23T13:27:22;42.78;;;29.23;;
82292;SDS011;71892;14.836;105.234;2024-03-23T13:29:49;44.35;;;29.90;;
82292;SDS011;71892;14.836;105.234;2024-03-23T13:32:15;46.22;;;31.48;;
82292;SDS011;71892;14.836;105.234;2024-03-23T13:34:42;40.05;;;31.05;;
82292;SDS011;71892;14.836;105.234;2024-03-23T13:37:08;45.47;;;29.27;;
82292;SDS011;71892;14.836;105.234;2024-03-23T13:39:35;47.75;;;31.23;;
82292;SDS011;71892;14.836;105.234;2024-03-23T13:42:02;43.42;;;32.42;;
82292;SDS011;71892;14.836;105.234;2024-03-23T13:44:29;48.70;;;33.03;;
82292;SDS011;71892;14.836;105.234;2024-03-23T13:46:55;46.35;;;29.92;;
82292;SDS011;71892;14.836;105.234;2024-03-23T13:49:26;47.35;;;31.98;;
82292;SDS011;71892;14.836;105.234;2024-03-23T13:51:54;41.75;;;32.33;;
82292;SDS011;71892;14.836;105.234;2024-03-23T13:54:21;50.80;;;33.25;;
82292;SDS011;71892;14.836;105.234;2024-03-23T13:56:48;44.33;;;28.45;;
82292;SDS011;71892;14.836;105.234;2024-03-23T13:59:14;47.08;;;28.77;;
82292;SDS011;71892;14.836;105.234;2024-03-23T14:01:41;47.17;;;31.35;;
82292;SDS011;71892;14.836;105.234;2024-03-23T14:04:07;52.95;;;33.35;;
82292;SDS011;71892;14.836;105.234;2024-03-23T14:06:34;50.00;;;35.55;;
82292;SDS011;71892;14.836;105.234;2024-03-23T14:09:00;49.40;;;34.38;;
82292;SDS011;71892;14.836;105.234;2024-03-23T14:11:29;53.75;;;34.85;;
82292;SDS011;71892;14.836;105.234;2024-03-23T14:13:56;47.83;;;34.55;;
82292;SDS011;71892;14.836;105.234;2024-03-23T14:16:22;60.15;;;38.25;;
82292;SDS011;71892;14.836;105.234;2024-03-23T14:18:49;59.28;;;38.92;;
82292;SDS011;71892;14.836;105.234;2024-03-23T14:21:16;60.53;;;39.90;;
82292;SDS011;71892;14.836;105.234;2024-03-23T14:23:43;62.03;;;39.55;;
82292;SDS011;71892;14.836;105.234;2024-03-23T14:26:09;55.40;;;39.70;;
82292;SDS011;71892;14.836;105.234;2024-03-23T14:28:36;60.65;;;41.53;;
82292;SDS011;71892;14.836;105.234;2024-03-23T14:31:02;58.58;;;37.15;;
82292;SDS011;71892;14.836;105.234;2024-03-23T14:33:38;57.42;;;38.20;;
82292;SDS011;71892;14.836;105.234;2024-03-23T14:36:15;62.33;;;38.30;;
82292;SDS011;71892;14.836;105.234;2024-03-23T14:38:48;59.38;;;38.03;;
82292;SDS011;71892;14.836;105.234;2024-03-23T14:41:15;63.75;;;41.63;;
82292;SDS011;71892;14.836;105.234;2024-03-23T14:43:42;64.30;;;37.70;;
82292;SDS011;71892;14.836;105.234;2024-03-23T14:46:10;61.28;;;39.33;;
82292;SDS011;71892;14.836;105.234;2024-03-23T14:48:37;62.10;;;39.95;;
82292;SDS011;71892;14.836;105.234;2024-03-23T14:51:03;65.63;;;41.20;;
82292;SDS011;71892;14.836;105.234;2024-03-23T14:53:34;62.20;;;40.83;;
82292;SDS011;71892;14.836;105.234;2024-03-23T14:56:03;52.95;;;38.03;;
82292;SDS011;71892;14.836;105.234;2024-03-23T14:58:30;56.30;;;36.58;;